Terminal Aerodrome Forecast
Issued by NWS

Home | Current Version | Previous Version | Text Only | Print | Product List | Glossary On
Versions: 1 2 3 4 5 6 7 8 9 10 11 12 13 14 15
000
FTUS43 KILX 310527
TAFBMI
TAF
KBMI 310527Z 3106/0106 VRB04KT 4SM BR SKC
     FM310800 15005KT 2SM BR SKC
     FM311000 19005KT 1/2SM FG BKN001
     FM311500 19008KT 4SM BR BKN006
     FM311800 20011KT P6SM SCT025
     FM010100 19006KT P6SM FEW025=

USA.gov is the U.S. government's official web portal to all federal, state and local government web resources and services.